Tasman Mariner — VRWW8 — position and weather

sailwx.info

Track history (hours):
 
Tides and Currents Weather Stations Pressure Air Temp Water Temp Dewpoint Dewpoint Depression Visibility Wind Speed Wind Dir Waves Ship Positions

Tasman Mariner

Last reported at 2016-Sep-28 15:14 UTC. Time now 2016-Oct-01 22:22 UTC.
Position N 01°48' E 102°26'.

Length 184 m; beam 27 m; draft 10 m.

Type: Ship (hazmat cat C). MMSI: 477860000.

Date/timePositionNaut miles runAvg speedWind from/ knotsBaromVisibWave heightAir tempDewpointWater temp
2016-Sep-28 15:14N 01°48' E 102°26'97 7.6
2016-Sep-28 02:32N 02°56' E 101°17'91 2.5
2016-Sep-26 13:30N 01°54' E 102°23'15 7.5
2016-Sep-26 11:27N 01°47' E 102°37'68 7.3
2016-Sep-26 02:05N 01°12' E 103°35'611.3
2016-Sep-26 01:33N 01°10' E 103°41'1111.4
2016-Sep-26 00:34N 01°13' E 103°52'4 1.3
2016-Sep-25 21:32N 01°16' E 103°50'0 0.0
2016-Sep-25 17:26N 01°16' E 103°50'0 0.0
2016-Sep-25 16:17N 01°16' E 103°50'0 0.0
2016-Sep-25 15:20N 01°16' E 103°50'0 0.0
2016-Sep-25 14:32N 01°16' E 103°50'0 0.0
2016-Sep-25 10:11N 01°16' E 103°50'0 0.0
2016-Sep-25 09:29N 01°16' E 103°50'0 0.0
2016-Sep-25 07:29N 01°16' E 103°50'3 1.2
2016-Sep-25 04:33N 01°14' E 103°53'  
Track history (hours):
 
Tides and Currents Weather Stations Pressure Air Temp Water Temp Dewpoint Dewpoint Depression Visibility Wind Speed Wind Dir Waves Ship Positions

Tasman Mariner

Last reported at 2016-Sep-28 15:14 UTC. Time now 2016-Oct-01 22:22 UTC.
Position N 01°48' E 102°26'.

Length 184 m; beam 27 m; draft 10 m.

Type: Ship (hazmat cat C). MMSI: 477860000.

Date/timePositionNaut miles runAvg speedWind from/ knotsBaromVisibWave heightAir tempDewpointWater temp
2016-Sep-28 15:14N 01°48' E 102°26'97 7.6
2016-Sep-28 02:32N 02°56' E 101°17'91 2.5
2016-Sep-26 13:30N 01°54' E 102°23'15 7.5
2016-Sep-26 11:27N 01°47' E 102°37'68 7.3
2016-Sep-26 02:05N 01°12' E 103°35'611.3
2016-Sep-26 01:33N 01°10' E 103°41'1111.4
2016-Sep-26 00:34N 01°13' E 103°52'4 1.3
2016-Sep-25 21:32N 01°16' E 103°50'0 0.0
2016-Sep-25 17:26N 01°16' E 103°50'0 0.0
2016-Sep-25 16:17N 01°16' E 103°50'0 0.0
2016-Sep-25 15:20N 01°16' E 103°50'0 0.0
2016-Sep-25 14:32N 01°16' E 103°50'0 0.0
2016-Sep-25 10:11N 01°16' E 103°50'0 0.0
2016-Sep-25 09:29N 01°16' E 103°50'0 0.0
2016-Sep-25 07:29N 01°16' E 103°50'3 1.2
2016-Sep-25 04:33N 01°14' E 103°53'  

Dump ship's entire track history